createdAt,value
2023-04-08T00:00:54.044Z,1.50
2023-04-08T00:03:22.303Z,2.00
2023-04-08T00:05:50.400Z,1.70
2023-04-08T00:08:18.385Z,2.00
2023-04-08T00:10:46.398Z,2.30
2023-04-08T00:13:14.991Z,1.60
2023-04-08T00:15:43.053Z,3.60
2023-04-08T00:18:11.113Z,2.00
2023-04-08T00:20:39.206Z,1.80
2023-04-08T00:23:07.201Z,2.30
2023-04-08T00:25:35.294Z,2.10
2023-04-08T00:28:03.451Z,1.90
2023-04-08T00:32:59.522Z,1.60
2023-04-08T00:35:27.540Z,1.60
2023-04-08T00:37:55.727Z,1.40
2023-04-08T00:42:51.522Z,2.00
2023-04-08T00:45:19.506Z,2.00
2023-04-08T00:47:52.574Z,1.80
2023-04-08T00:50:21.208Z,2.00
2023-04-08T00:55:17.144Z,2.30
2023-04-08T00:57:45.788Z,2.00
2023-04-08T01:00:14.689Z,1.80
2023-04-08T01:02:54.094Z,1.90
2023-04-08T01:05:31.009Z,1.60
2023-04-08T01:07:59.019Z,2.00
2023-04-08T01:10:29.093Z,1.80
2023-04-08T01:13:06.482Z,1.70
2023-04-08T01:15:35.823Z,1.80
2023-04-08T01:18:06.968Z,1.80
2023-04-08T01:20:34.991Z,1.30
2023-04-08T01:23:21.106Z,1.60
2023-04-08T01:25:55.800Z,1.80
2023-04-08T01:28:25.745Z,1.90
2023-04-08T01:30:54.044Z,1.70
2023-04-08T01:33:22.450Z,2.30
2023-04-08T01:35:51.689Z,1.50
2023-04-08T01:38:20.414Z,1.80
2023-04-08T01:40:49.516Z,2.00
2023-04-08T01:43:17.692Z,1.40
2023-04-08T01:45:46.273Z,1.40
2023-04-08T01:48:14.808Z,2.00
2023-04-08T01:50:43.520Z,1.80
2023-04-08T01:53:12.049Z,1.70
2023-04-08T01:58:08.475Z,1.80
2023-04-08T02:03:05.833Z,1.50
2023-04-08T02:05:34.444Z,2.30
2023-04-08T02:08:04.176Z,2.30
2023-04-08T02:10:32.199Z,1.70
2023-04-08T02:13:01.551Z,1.70
2023-04-08T02:15:34.979Z,1.90
2023-04-08T02:18:09.266Z,1.60
2023-04-08T02:20:44.826Z,1.90
2023-04-08T02:23:16.542Z,1.70
2023-04-08T02:25:45.677Z,1.40
2023-04-08T02:28:13.905Z,2.50
2023-04-08T02:30:43.360Z,1.80
2023-04-08T02:33:11.880Z,1.90
2023-04-08T02:35:40.737Z,1.60
2023-04-08T02:38:09.755Z,2.10
2023-04-08T02:40:37.922Z,1.50
2023-04-08T02:45:39.041Z,1.70
2023-04-08T02:48:07.348Z,1.80
2023-04-08T02:50:35.621Z,1.70
2023-04-08T02:53:03.902Z,1.60
2023-04-08T02:55:33.014Z,2.20
2023-04-08T02:58:00.947Z,2.00
2023-04-08T03:00:28.970Z,1.40
2023-04-08T03:02:57.218Z,2.00
2023-04-08T03:05:26.558Z,1.50
2023-04-08T03:07:54.663Z,1.50
2023-04-08T03:10:22.710Z,1.60
2023-04-08T03:12:50.825Z,1.60
2023-04-08T03:15:18.921Z,2.30
2023-04-08T03:20:15.009Z,2.00
2023-04-08T03:22:42.923Z,1.80
2023-04-08T03:25:11.843Z,1.80
2023-04-08T03:27:39.816Z,2.00
2023-04-08T03:30:08.338Z,2.40
2023-04-08T03:32:36.552Z,1.30
2023-04-08T03:35:05.725Z,1.70
2023-04-08T03:37:33.729Z,1.60
2023-04-08T03:40:01.738Z,1.80
2023-04-08T03:42:29.795Z,1.90
2023-04-08T03:44:58.628Z,1.60
2023-04-08T03:47:27.390Z,1.50
2023-04-08T03:49:55.392Z,1.20
2023-04-08T03:52:24.685Z,1.50
2023-04-08T03:54:52.696Z,1.70
2023-04-08T03:57:20.920Z,1.20
2023-04-08T04:02:16.883Z,1.70
2023-04-08T04:04:45.123Z,1.90
2023-04-08T04:07:13.165Z,1.40
2023-04-08T04:09:41.252Z,2.20
2023-04-08T04:12:09.203Z,2.40
2023-04-08T04:14:37.230Z,1.30
2023-04-08T04:17:05.310Z,1.00
2023-04-08T04:19:33.349Z,1.60
2023-04-08T04:22:01.327Z,1.90
2023-04-08T04:24:29.170Z,1.80
2023-04-08T04:26:57.038Z,1.90
2023-04-08T04:29:25.008Z,1.60
2023-04-08T04:31:53.082Z,2.10
2023-04-08T04:34:21.042Z,1.50
2023-04-08T04:36:49.035Z,1.90
2023-04-08T04:39:16.989Z,1.30
2023-04-08T04:41:44.888Z,1.90
2023-04-08T04:44:13.278Z,2.00
2023-04-08T04:46:41.341Z,1.80
2023-04-08T04:49:09.283Z,1.50
2023-04-08T04:51:37.525Z,1.60
2023-04-08T04:54:05.462Z,1.30
2023-04-08T04:56:33.512Z,2.10
2023-04-08T04:59:01.596Z,3.30
2023-04-08T05:01:29.649Z,1.80
2023-04-08T05:03:58.253Z,2.40
2023-04-08T05:06:27.235Z,2.50
2023-04-08T05:08:55.288Z,2.40
2023-04-08T05:11:23.343Z,2.40
2023-04-08T05:13:51.456Z,2.30
2023-04-08T05:16:19.558Z,1.80
2023-04-08T05:18:47.551Z,3.10
2023-04-08T05:21:15.649Z,2.80
2023-04-08T05:23:43.553Z,2.60
2023-04-08T05:26:11.498Z,2.60
2023-04-08T05:28:39.422Z,3.70
2023-04-08T05:31:07.412Z,2.70
2023-04-08T05:33:35.632Z,2.60
2023-04-08T05:36:03.705Z,3.20
2023-04-08T05:38:31.814Z,2.70
2023-04-08T05:40:59.846Z,6.00
2023-04-08T05:43:27.840Z,7.40
2023-04-08T05:45:56.183Z,4.10
2023-04-08T05:50:51.964Z,5.60
2023-04-08T05:53:20.076Z,4.10
2023-04-08T05:55:48.080Z,3.90
2023-04-08T05:58:16.130Z,4.50
2023-04-08T06:00:44.073Z,3.60
2023-04-08T06:03:12.217Z,4.20
2023-04-08T06:08:08.463Z,3.60
2023-04-08T06:10:36.402Z,4.00
2023-04-08T06:13:04.436Z,4.40
2023-04-08T06:15:32.754Z,3.90
2023-04-08T06:20:28.736Z,3.30
2023-04-08T06:22:56.619Z,5.60
2023-04-08T06:25:24.919Z,5.00
2023-04-08T06:27:53.036Z,6.40
2023-04-08T06:30:21.905Z,3.70
2023-04-08T06:32:50.064Z,3.00
2023-04-08T06:35:18.260Z,3.60
2023-04-08T06:40:14.321Z,5.20
2023-04-08T06:42:44.535Z,3.00
2023-04-08T06:45:23.087Z,4.30
2023-04-08T06:47:51.249Z,4.10
2023-04-08T06:50:19.327Z,3.70
2023-04-08T06:52:47.302Z,3.90
2023-04-08T06:55:15.296Z,5.80
2023-04-08T06:57:43.238Z,5.30
2023-04-08T07:00:11.744Z,5.10
2023-04-08T07:02:39.765Z,4.10
2023-04-08T12:25:28.632Z,9.00
2023-04-08T12:27:55.270Z,6.50
2023-04-08T12:30:21.912Z,8.50
2023-04-08T12:32:48.632Z,8.10
2023-04-08T12:35:15.715Z,7.00
2023-04-08T12:37:42.655Z,7.50
2023-04-08T12:40:10.580Z,7.70
2023-04-08T12:42:37.462Z,6.10
2023-04-08T12:45:04.411Z,9.20
2023-04-08T12:47:32.803Z,9.40
2023-04-08T12:49:59.426Z,10.40
2023-04-08T12:52:26.573Z,11.60
2023-04-08T12:54:53.235Z,10.10
2023-04-08T12:57:20.061Z,9.50
2023-04-08T12:59:47.314Z,8.30
2023-04-08T13:02:13.860Z,9.50
2023-04-08T13:04:40.506Z,7.10
2023-04-08T13:07:07.223Z,7.00
2023-04-08T13:09:34.165Z,6.80
2023-04-08T13:12:00.912Z,6.00
2023-04-08T13:14:28.169Z,9.20
2023-04-08T13:16:54.934Z,7.90
2023-04-08T13:19:21.856Z,6.60
2023-04-08T13:21:48.590Z,6.90
2023-04-08T13:24:15.441Z,7.40
2023-04-08T13:26:42.192Z,6.80
2023-04-08T13:29:08.875Z,6.10
2023-04-08T13:31:35.770Z,6.80
2023-04-08T13:34:02.618Z,5.90
2023-04-08T13:36:29.311Z,8.70
2023-04-08T13:38:56.176Z,7.00
2023-04-08T13:41:22.819Z,5.80
2023-04-08T13:43:49.766Z,5.40
2023-04-08T13:46:16.342Z,6.00
2023-04-08T13:48:43.240Z,7.30
2023-04-08T13:51:09.934Z,5.10
2023-04-08T13:53:36.726Z,7.30
2023-04-08T13:56:03.355Z,6.20
2023-04-08T13:58:30.829Z,6.60
2023-04-08T14:00:57.573Z,6.60
2023-04-08T14:03:24.226Z,5.60
2023-04-08T14:05:50.958Z,5.70
2023-04-08T14:08:24.536Z,5.70
2023-04-08T14:10:51.695Z,6.30
2023-04-08T14:13:18.355Z,6.30
2023-04-08T14:15:46.217Z,7.80
2023-04-08T14:18:13.382Z,4.90
2023-04-08T14:20:40.693Z,5.90
2023-04-08T14:23:07.234Z,5.80
2023-04-08T14:25:33.874Z,6.10
2023-04-08T14:28:00.833Z,5.50
2023-04-08T14:30:28.020Z,4.90
2023-04-08T14:32:54.821Z,5.00
2023-04-08T14:35:21.805Z,4.20
2023-04-08T14:37:48.608Z,5.40
2023-04-08T14:40:15.339Z,6.50
2023-04-08T14:42:43.920Z,5.10
2023-04-08T14:45:10.958Z,4.60
2023-04-08T14:47:37.512Z,4.70
2023-04-08T14:50:04.666Z,5.40
2023-04-08T14:52:31.499Z,7.30
2023-04-08T14:54:59.393Z,4.80
2023-04-08T14:57:26.866Z,6.30
2023-04-08T14:59:53.798Z,6.00
2023-04-08T15:02:20.686Z,12.20
2023-04-08T15:04:47.383Z,11.60
2023-04-08T15:07:14.073Z,9.20
2023-04-08T15:09:41.467Z,10.20
2023-04-08T15:12:08.133Z,10.40
2023-04-08T15:14:35.046Z,12.90
2023-04-08T15:17:01.667Z,10.80
2023-04-08T15:19:28.303Z,12.00
2023-04-08T15:21:55.052Z,9.50
2023-04-08T15:24:21.993Z,10.70
2023-04-08T15:26:48.629Z,12.90
2023-04-08T15:29:15.265Z,10.20
2023-04-08T15:31:41.915Z,8.80
2023-04-08T15:34:08.645Z,10.30
2023-04-08T15:36:36.745Z,10.20
2023-04-08T15:39:03.644Z,8.90
2023-04-08T15:41:31.760Z,9.70
2023-04-08T15:43:58.307Z,10.30
2023-04-08T15:46:24.904Z,8.60
2023-04-08T15:48:52.114Z,7.70
2023-04-08T15:51:19.820Z,8.60
2023-04-08T15:53:46.665Z,10.10
2023-04-08T15:56:17.433Z,9.50
2023-04-08T15:58:45.162Z,7.70
2023-04-08T16:01:11.812Z,8.40
2023-04-08T16:03:38.823Z,8.40
2023-04-08T16:06:05.923Z,9.30
2023-04-08T16:08:33.986Z,9.20
2023-04-08T16:11:04.689Z,7.00
2023-04-08T16:13:31.342Z,8.10
2023-04-08T16:16:00.173Z,9.60
2023-04-08T16:18:27.597Z,9.50
2023-04-08T16:20:55.060Z,9.00
2023-04-08T16:23:21.987Z,8.80
2023-04-08T16:25:48.523Z,8.80
2023-04-08T16:28:15.778Z,9.50
2023-04-08T16:30:43.554Z,7.70
2023-04-08T16:33:10.805Z,7.10
2023-04-08T16:35:37.983Z,7.20
2023-04-08T16:38:05.514Z,8.80
2023-04-08T16:40:32.896Z,6.90
2023-04-08T16:43:00.441Z,9.00
2023-04-08T16:45:30.708Z,7.20
2023-04-08T16:47:57.496Z,7.40
2023-04-08T16:50:24.568Z,5.40
2023-04-08T16:52:51.118Z,7.50
2023-04-08T16:55:18.240Z,8.20
2023-04-08T16:57:45.376Z,7.00
2023-04-08T17:00:13.138Z,6.30
2023-04-08T17:02:40.451Z,7.60
2023-04-08T17:05:07.705Z,6.50
2023-04-08T17:07:34.593Z,6.50
2023-04-08T17:10:01.177Z,8.10
2023-04-08T17:12:27.828Z,6.70
2023-04-08T17:14:54.609Z,6.30
2023-04-08T17:17:21.246Z,7.70
2023-04-08T17:19:48.091Z,8.00
2023-04-08T17:22:14.715Z,9.10
2023-04-08T17:24:41.964Z,9.00
2023-04-08T17:27:08.569Z,10.00
2023-04-08T17:29:35.149Z,11.00
2023-04-08T17:32:02.032Z,10.10
2023-04-08T17:34:30.683Z,12.20
2023-04-08T17:36:57.555Z,12.70
2023-04-08T17:39:24.111Z,13.20
2023-04-08T17:41:50.829Z,12.80
2023-04-08T17:44:17.499Z,13.60
2023-04-08T17:46:44.221Z,10.70
2023-04-08T17:49:12.141Z,11.40
2023-04-08T17:51:38.656Z,12.60
2023-04-08T17:54:05.226Z,12.20
2023-04-08T17:56:32.879Z,12.20
2023-04-08T17:58:59.742Z,13.50
2023-04-08T18:01:26.363Z,19.30
2023-04-08T18:03:53.290Z,36.80
2023-04-08T18:06:20.156Z,32.30
2023-04-08T18:08:46.682Z,45.60
2023-04-08T18:11:13.235Z,39.00
2023-04-08T18:13:39.969Z,36.30
2023-04-08T18:16:14.390Z,31.10
2023-04-08T18:18:41.029Z,31.10
2023-04-08T18:21:07.938Z,23.80
2023-04-08T18:23:37.001Z,29.90
2023-04-08T18:26:03.806Z,24.30
2023-04-08T18:28:30.864Z,27.60
2023-04-08T18:30:57.515Z,29.20
2023-04-08T18:33:24.332Z,26.20
2023-04-08T18:35:52.421Z,26.60
2023-04-08T18:38:19.010Z,18.80
2023-04-08T18:40:46.013Z,24.90
2023-04-08T18:43:13.241Z,28.30
2023-04-08T18:45:40.563Z,24.40
2023-04-08T18:48:07.848Z,21.90
2023-04-08T18:50:34.464Z,19.90
2023-04-08T18:53:01.133Z,19.40
2023-04-08T18:55:27.865Z,18.00
2023-04-08T18:57:54.503Z,19.60
2023-04-08T19:00:21.249Z,20.30
2023-04-08T19:02:47.986Z,15.40
2023-04-08T19:05:14.928Z,21.40
2023-04-08T19:07:41.568Z,18.70
2023-04-08T19:10:10.067Z,20.70
2023-04-08T19:12:36.786Z,18.70
2023-04-08T19:15:04.052Z,16.60
2023-04-08T19:17:30.991Z,17.40
2023-04-08T19:19:58.162Z,15.30
2023-04-08T19:22:24.885Z,15.40
2023-04-08T19:24:53.028Z,13.20
2023-04-08T19:27:21.122Z,17.30
2023-04-08T19:29:47.651Z,16.00
2023-04-08T19:32:14.711Z,16.40
2023-04-08T19:34:41.673Z,18.30
2023-04-08T19:37:08.316Z,15.30
2023-04-08T19:39:34.946Z,14.50
2023-04-08T19:42:02.261Z,21.50
2023-04-08T19:44:29.129Z,14.10
2023-04-08T19:46:57.080Z,15.50
2023-04-08T19:49:24.255Z,14.40
2023-04-08T19:51:51.200Z,13.60
2023-04-08T19:54:17.693Z,12.90
2023-04-08T19:56:44.985Z,12.30
2023-04-08T19:59:11.728Z,14.10
2023-04-08T20:01:39.897Z,16.80
2023-04-08T20:04:06.799Z,12.20
2023-04-08T20:06:34.194Z,13.90
2023-04-08T20:09:04.718Z,12.20
2023-04-08T20:11:32.231Z,13.20
2023-04-08T20:13:58.778Z,12.70
2023-04-08T20:16:26.128Z,13.40
2023-04-08T20:18:52.961Z,11.50
2023-04-08T20:21:19.962Z,10.60
2023-04-08T20:23:46.701Z,11.30
2023-04-08T20:26:13.717Z,12.70
2023-04-08T20:28:40.741Z,11.80
2023-04-08T20:31:08.582Z,12.10
2023-04-08T20:33:37.150Z,9.30
2023-04-08T20:36:04.427Z,10.40
2023-04-08T20:38:34.523Z,12.60
2023-04-08T20:41:01.571Z,9.80
2023-04-08T20:43:28.323Z,11.30
2023-04-08T20:45:54.969Z,10.40
2023-04-08T20:48:21.712Z,10.50
2023-04-08T20:50:48.529Z,13.20
2023-04-08T20:53:16.513Z,9.10
2023-04-08T20:55:43.237Z,10.20
2023-04-08T20:58:10.565Z,10.80
2023-04-08T21:00:37.153Z,10.40
2023-04-08T21:03:03.945Z,10.50
2023-04-08T21:05:30.683Z,10.20
2023-04-08T21:07:57.171Z,8.50
2023-04-08T21:10:23.886Z,10.80
2023-04-08T21:12:50.427Z,9.40
2023-04-08T21:15:17.402Z,10.60
2023-04-08T21:17:44.258Z,9.80
2023-04-08T21:20:11.975Z,11.00
2023-04-08T21:22:39.047Z,9.50
2023-04-08T21:25:06.700Z,9.40
2023-04-08T21:27:33.425Z,12.90
2023-04-08T21:30:00.075Z,8.90
2023-04-08T21:32:29.947Z,9.10
2023-04-08T21:34:57.466Z,12.30
2023-04-08T21:37:24.072Z,8.50
2023-04-08T21:39:52.122Z,8.40
2023-04-08T21:42:22.389Z,8.90
2023-04-08T21:44:50.365Z,9.00
2023-04-08T21:47:17.486Z,8.00
2023-04-08T21:49:45.060Z,6.50
2023-04-08T21:52:12.712Z,8.70
2023-04-08T21:54:39.980Z,9.20
2023-04-08T21:57:07.248Z,6.70
2023-04-08T21:59:34.855Z,9.10
2023-04-08T22:02:02.844Z,9.10
2023-04-08T22:04:29.449Z,9.90
2023-04-08T22:06:56.560Z,8.70
2023-04-08T22:09:23.587Z,8.90
2023-04-08T22:11:50.429Z,7.20
2023-04-08T22:14:17.252Z,8.40
2023-04-08T22:16:44.731Z,8.20
2023-04-08T22:19:11.830Z,10.70
2023-04-08T22:21:38.621Z,6.50
2023-04-08T22:24:05.683Z,9.20
2023-04-08T22:26:32.621Z,7.30
2023-04-08T22:28:59.365Z,8.10
2023-04-08T22:31:26.420Z,7.80
2023-04-08T22:33:53.177Z,6.70
2023-04-08T22:36:19.884Z,8.40
2023-04-08T22:38:46.544Z,7.40
2023-04-08T22:41:20.321Z,7.40
2023-04-08T22:43:47.480Z,6.70
2023-04-08T22:46:14.400Z,8.00
2023-04-08T22:48:41.090Z,6.80
2023-04-08T22:51:08.011Z,6.60
2023-04-08T22:53:34.957Z,8.30
2023-04-08T22:56:02.249Z,6.20
2023-04-08T22:58:29.330Z,9.10
2023-04-08T23:00:56.792Z,7.40
2023-04-08T23:03:24.851Z,7.60
2023-04-08T23:05:53.090Z,6.60
2023-04-08T23:08:20.214Z,7.90
2023-04-08T23:10:46.844Z,8.60
2023-04-08T23:13:13.937Z,6.70
2023-04-08T23:15:41.076Z,7.10
2023-04-08T23:18:07.988Z,6.70
2023-04-08T23:20:35.348Z,6.00
2023-04-08T23:23:03.383Z,7.20
2023-04-08T23:25:30.432Z,5.60
2023-04-08T23:27:57.811Z,6.10
2023-04-08T23:30:24.582Z,5.90
2023-04-08T23:32:51.228Z,8.00
2023-04-08T23:35:18.038Z,5.20
2023-04-08T23:37:44.886Z,5.80
2023-04-08T23:40:11.935Z,7.30
2023-04-08T23:42:38.453Z,6.80
2023-04-08T23:45:05.786Z,5.60
2023-04-08T23:47:32.399Z,5.90
2023-04-08T23:49:59.284Z,5.90
2023-04-08T23:52:26.018Z,5.60
2023-04-08T23:54:52.533Z,5.70
2023-04-08T23:57:21.790Z,6.40
2023-04-08T23:59:48.537Z,7.50
